Dades meteorològiques de l'aviació METAR     EFOU Oulu Airport
Temperatura
20°C Temperatura
19°C Rosada
94% Humitat



Vent
8 KM/H
5 MPH
2 M/S
4 NUS



190°
S
Condicions actuals

Parcialment ennuvolat Parcialment ennuvolat
Pressió 1012.92 (hPa) - 29.91 (inHg)
Visibilitat 6.2 (milla) - 10 (km)
Aeroport
Codi aeroport EFOU

Ubicació: Oulu Airport
Distància: 83 (km)

Metar:
EFOU 030250Z AUTO 19004KT 160V240 9999 FEW025 BKN036 20/19 Q1013

Temps: 03-07-2022 05:50 EEST